Time;durP1;ratioP1;P1;durP2;ratioP2;P2;SDS_P1;SDS_P2;PMS_P1;PMS_P2;Temp;Humidity;BMP_temperature;BMP_pressure;BME280_temperature;BME280_humidity;BME280_pressure;Samples;Min_cycle;Max_cycle;Signal;HPM_P1;HPM_P2
2022/04/25 00:00:55;;;;;;;;;;;;;;;;;;5068474;28;20023;-63
2022/04/25 00:03:21;;;;;;;;;;;;;;;;;;5060272;28;20664;-63
2022/04/25 00:05:47;;;;;;;;;;;;;;;;;;5061507;28;19933;-63
2022/04/25 00:08:13;;;;;;;;;;;;;;;;;;5074549;28;19924;-60
2022/04/25 00:10:40;;;;;;;;;;;;;;;;;;5062340;28;19932;-58
2022/04/25 00:13:06;;;;;;;;;;;;;;;;;;5060188;28;19928;-60
2022/04/25 00:15:32;;;;;;;;;;;;;;;;;;5062703;28;21347;-60
2022/04/25 00:17:58;;;;;;;;;;;;;;;;;;5060955;28;20143;-60
2022/04/25 00:20:24;;;;;;;;;;;;;;;;;;5059348;28;20191;-59
2022/04/25 00:22:50;;;;;;;;;;;;;;;;;;5064313;28;19932;-58
2022/04/25 00:25:16;;;;;;;;;;;;;;;;;;5060172;28;20270;-59
2022/04/25 00:27:43;;;;;;;;;;;;;;;;;;5055783;28;20021;-59
2022/04/25 00:30:09;;;;;;;;;;;;;;;;;;5062159;28;20147;-59
2022/04/25 00:32:35;;;;;;;;;;;;;;;;;;5058389;28;19925;-59
2022/04/25 00:35:03;;;;;;;;;;;;;;;;;;5063583;28;19924;-59
2022/04/25 00:37:29;;;;;;;;;;;;;;;;;;5064618;28;19943;-59
2022/04/25 00:39:55;;;;;;;;;;;;;;;;;;5064445;28;19951;-59
2022/04/25 00:42:21;;;;;;;;;;;;;;;;;;5063437;28;19932;-58
2022/04/25 00:44:47;;;;;;;;;;;;;;;;;;5060933;28;19928;-58
2022/04/25 00:47:13;;;;;;;;;;;;;;;;;;5061376;28;19929;-59
2022/04/25 00:49:40;;;;;;;;;;;;;;;;;;5060000;28;19939;-60
2022/04/25 00:52:06;;;;;;;;;;;;;;;;;;5063138;28;20027;-59
2022/04/25 00:54:33;;;;;;;;;;;;;;;;;;5063615;28;19928;-59
2022/04/25 00:57:00;;;;;;;;;;;;;;;;;;5062983;28;20476;-57
2022/04/25 00:59:26;;;;;;;;;;;;;;;;;;5068652;28;20274;-58
2022/04/25 01:01:52;;;;;;;;;;;;;;;;;;5060813;28;19924;-58
2022/04/25 01:04:18;;;;;;;;;;;;;;;;;;5062428;28;20051;-60
2022/04/25 01:06:45;;;;;;;;;;;;;;;;;;5059142;28;19964;-60
2022/04/25 01:09:11;;;;;;;;;;;;;;;;;;5062080;28;19925;-58
2022/04/25 01:11:37;;;;;;;;;;;;;;;;;;5062250;28;19951;-58
2022/04/25 01:14:03;;;;;;;;;;;;;;;;;;5062914;28;20008;-57
2022/04/25 01:16:29;;;;;;;;;;;;;;;;;;5061531;28;19924;-60
2022/04/25 01:18:55;;;;;;;;;;;;;;;;;;5061121;28;20004;-60
2022/04/25 01:21:22;;;;;;;;;;;;;;;;;;5071064;28;20165;-61
2022/04/25 01:29:16;;;;;;;;;;;;;;;;;;5069292;28;19924;-58
2022/04/25 01:31:42;;;;;;;;;;;;;;;;;;5072017;28;19931;-59
2022/04/25 01:34:08;;;;;;;;;;;;;;;;;;5070344;28;19939;-60
2022/04/25 01:36:34;;;;;;;;;;;;;;;;;;5071090;28;19954;-59
2022/04/25 01:39:00;;;;;;;;;;;;;;;;;;5069122;28;19935;-60
2022/04/25 01:41:26;;;;;;;;;;;;;;;;;;5067795;28;19940;-61
2022/04/25 01:43:52;;;;;;;;;;;;;;;;;;5071674;28;19924;-62
2022/04/25 01:46:19;;;;;;;;;;;;;;;;;;5070675;28;20023;-60
2022/04/25 01:48:45;;;;;;;;;;;;;;;;;;5070137;28;19942;-60
2022/04/25 01:51:11;;;;;;;;;;;;;;;;;;5064416;28;19928;-61
2022/04/25 01:53:37;;;;;;;;;;;;;;;;;;5064731;28;20098;-60
2022/04/25 01:56:04;;;;;;;;;;;;;;;;;;5064595;28;20006;-61
2022/04/25 01:58:30;;;;;;;;;;;;;;;;;;5064361;28;19928;-61
2022/04/25 02:00:56;;;;;;;;;;;;;;;;;;5065353;28;19940;-59
2022/04/25 02:03:22;;;;;;;;;;;;;;;;;;5063967;28;19928;-60
2022/04/25 02:05:48;;;;;;;;;;;;;;;;;;4712151;28;10000200;-60
2022/04/25 02:08:15;;;;;;;;;;;;;;;;;;5062656;28;20121;-60
2022/04/25 02:11:19;;;;;;;;;;;;;;;;;;5065025;28;20035;-58
2022/04/25 02:13:27;;;;;;;;;;;;;;;;;;5061196;28;20051;-59
2022/04/25 02:15:53;;;;;;;;;;;;;;;;;;5063391;28;19935;-64
2022/04/25 02:18:19;;;;;;;;;;;;;;;;;;5065702;28;20039;-65
2022/04/25 02:20:45;;;;;;;;;;;;;;;;;;5068749;28;19951;-64
2022/04/25 02:23:11;;;;;;;;;;;;;;;;;;5069734;28;20267;-65
2022/04/25 02:25:37;;;;;;;;;;;;;;;;;;5071843;28;19947;-65
2022/04/25 02:28:04;;;;;;;;;;;;;;;;;;5071083;28;19935;-62
2022/04/25 02:30:30;;;;;;;;;;;;;;;;;;5069389;28;19924;-62
2022/04/25 02:32:56;;;;;;;;;;;;;;;;;;5070503;28;20016;-62
2022/04/25 02:35:22;;;;;;;;;;;;;;;;;;5070302;28;19924;-61
2022/04/25 02:37:48;;;;;;;;;;;;;;;;;;5070991;28;20059;-62
2022/04/25 02:40:14;;;;;;;;;;;;;;;;;;5066123;28;20024;-62
2022/04/25 02:42:41;;;;;;;;;;;;;;;;;;5070032;28;19925;-62
2022/04/25 02:45:07;;;;;;;;;;;;;;;;;;5069331;28;19993;-61
2022/04/25 02:47:34;;;;;;;;;;;;;;;;;;5070629;28;20019;-62
2022/04/25 02:50:00;;;;;;;;;;;;;;;;;;5067987;28;19924;-62
2022/04/25 02:52:26;;;;;;;;;;;;;;;;;;5070381;28;19947;-62
2022/04/25 02:54:52;;;;;;;;;;;;;;;;;;5068379;28;19925;-63
2022/04/25 02:57:19;;;;;;;;;;;;;;;;;;5070346;28;19925;-66
2022/04/25 02:59:45;;;;;;;;;;;;;;;;;;5069607;28;19929;-62
2022/04/25 03:02:11;;;;;;;;;;;;;;;;;;5069316;28;19931;-62
2022/04/25 03:07:05;;;;;;;;;;;;;;;;;;5062276;28;20468;-70
2022/04/25 03:09:31;;;;;;;;;;;;;;;;;;5066212;28;19924;-70
2022/04/25 03:11:58;;;;;;;;;;;;;;;;;;5068289;28;19929;-69
2022/04/25 03:14:25;;;;;;;;;;;;;;;;;;5066243;28;19928;-69
2022/04/25 03:16:51;;;;;;;;;;;;;;;;;;5049075;28;20029;-69
2022/04/25 03:19:17;;;;;;;;;;;;;;;;;;5049092;28;20319;-69
2022/04/25 03:21:44;;;;;;;;;;;;;;;;;;5042505;28;20443;-71
2022/04/25 03:24:10;;;;;;;;;;;;;;;;;;5051661;28;20315;-72
2022/04/25 03:26:37;;;;;;;;;;;;;;;;;;5040674;28;19929;-71
2022/04/25 03:29:03;;;;;;;;;;;;;;;;;;5043753;28;19974;-71
2022/04/25 03:31:29;;;;;;;;;;;;;;;;;;5040363;28;20464;-70
2022/04/25 03:33:55;;;;;;;;;;;;;;;;;;5036196;28;20341;-71
2022/04/25 03:36:21;;;;;;;;;;;;;;;;;;5041773;28;19932;-70
2022/04/25 03:38:47;;;;;;;;;;;;;;;;;;5036601;28;19937;-71
2022/04/25 03:41:13;;;;;;;;;;;;;;;;;;5047176;28;19925;-71
2022/04/25 03:43:39;;;;;;;;;;;;;;;;;;5049745;28;19929;-70
2022/04/25 03:46:06;;;;;;;;;;;;;;;;;;5048579;28;20003;-70
2022/04/25 03:48:32;;;;;;;;;;;;;;;;;;5045336;28;20347;-69
2022/04/25 03:50:58;;;;;;;;;;;;;;;;;;5045849;28;19924;-69
2022/04/25 03:53:24;;;;;;;;;;;;;;;;;;5043127;28;19947;-70
2022/04/25 03:58:34;;;;;;;;;;;;;;;;;;5041476;28;20382;-69
2022/04/25 04:01:02;;;;;;;;;;;;;;;;;;5048446;28;20035;-68
2022/04/25 04:03:30;;;;;;;;;;;;;;;;;;5045869;28;20662;-69
2022/04/25 04:05:56;;;;;;;;;;;;;;;;;;5043133;28;20334;-70
2022/04/25 04:08:23;;;;;;;;;;;;;;;;;;5039474;28;19924;-68
2022/04/25 04:10:49;;;;;;;;;;;;;;;;;;5041533;28;20388;-70
2022/04/25 04:13:15;;;;;;;;;;;;;;;;;;5045791;28;19928;-70
2022/04/25 04:15:42;;;;;;;;;;;;;;;;;;5044240;28;20081;-71
2022/04/25 04:18:08;;;;;;;;;;;;;;;;;;5050283;28;19933;-71
2022/04/25 04:20:34;;;;;;;;;;;;;;;;;;5039183;28;19951;-70
2022/04/25 04:23:00;;;;;;;;;;;;;;;;;;5041427;28;19952;-71
2022/04/25 04:25:27;;;;;;;;;;;;;;;;;;5036828;28;20303;-71
2022/04/25 04:27:53;;;;;;;;;;;;;;;;;;5044025;28;19947;-71
2022/04/25 04:30:19;;;;;;;;;;;;;;;;;;5047447;28;19925;-70
2022/04/25 04:32:45;;;;;;;;;;;;;;;;;;5047955;28;19971;-70
2022/04/25 04:35:11;;;;;;;;;;;;;;;;;;5036430;28;19929;-70
2022/04/25 04:37:37;;;;;;;;;;;;;;;;;;5041511;28;19933;-70
2022/04/25 04:42:46;;;;;;;;;;;;;;;;;;5036618;28;19920;-70
2022/04/25 04:45:12;;;;;;;;;;;;;;;;;;5044710;28;20090;-71
2022/04/25 04:47:38;;;;;;;;;;;;;;;;;;5038238;28;20012;-68
2022/04/25 04:50:05;;;;;;;;;;;;;;;;;;5035398;28;19936;-72
2022/04/25 04:52:31;;;;;;;;;;;;;;;;;;5050348;28;19999;-70
2022/04/25 04:54:57;;;;;;;;;;;;;;;;;;5039808;28;20300;-70
2022/04/25 04:57:23;;;;;;;;;;;;;;;;;;5042401;28;19925;-71
2022/04/25 04:59:49;;;;;;;;;;;;;;;;;;5037191;28;19925;-69
2022/04/25 05:02:16;;;;;;;;;;;;;;;;;;5040376;28;19934;-69
2022/04/25 05:04:43;;;;;;;;;;;;;;;;;;5038551;28;20063;-69
2022/04/25 05:07:09;;;;;;;;;;;;;;;;;;5041796;28;19929;-70
2022/04/25 05:09:35;;;;;;;;;;;;;;;;;;5037429;28;19956;-69
2022/04/25 05:12:01;;;;;;;;;;;;;;;;;;5032223;28;19929;-69
2022/04/25 05:14:27;;;;;;;;;;;;;;;;;;4336818;28;10000740;-69
2022/04/25 05:16:53;;;;;;;;;;;;;;;;;;5040032;28;19972;-69
2022/04/25 05:19:20;;;;;;;;;;;;;;;;;;5044465;28;20328;-71
2022/04/25 05:21:46;;;;;;;;;;;;;;;;;;5036059;28;20011;-70
2022/04/25 05:24:12;;;;;;;;;;;;;;;;;;5045590;28;19951;-71
2022/04/25 05:26:38;;;;;;;;;;;;;;;;;;5037190;28;21068;-70
2022/04/25 05:29:05;;;;;;;;;;;;;;;;;;5050194;28;19924;-71
2022/04/25 05:31:31;;;;;;;;;;;;;;;;;;5043542;28;20294;-72
2022/04/25 05:33:57;;;;;;;;;;;;;;;;;;5038623;28;19940;-70
2022/04/25 05:36:24;;;;;;;;;;;;;;;;;;5054423;28;19941;-71
2022/04/25 05:38:50;;;;;;;;;;;;;;;;;;5049264;28;19952;-71
2022/04/25 05:41:16;;;;;;;;;;;;;;;;;;5042126;28;19936;-71
2022/04/25 05:43:42;;;;;;;;;;;;;;;;;;5037083;28;19928;-70
2022/04/25 05:46:09;;;;;;;;;;;;;;;;;;5051143;28;20429;-71
2022/04/25 05:54:02;;;;;;;;;;;;;;;;;;5042077;28;19924;-72
2022/04/25 05:56:28;;;;;;;;;;;;;;;;;;5054956;28;20020;-73
2022/04/25 05:58:55;;;;;;;;;;;;;;;;;;5044310;28;20092;-71
2022/04/25 06:01:21;;;;;;;;;;;;;;;;;;5053983;28;20006;-71
2022/04/25 06:03:47;;;;;;;;;;;;;;;;;;5039491;28;19929;-70
2022/04/25 06:06:13;;;;;;;;;;;;;;;;;;5044142;28;19939;-69
2022/04/25 06:08:40;;;;;;;;;;;;;;;;;;5045982;28;19928;-70
2022/04/25 06:11:06;;;;;;;;;;;;;;;;;;5032075;28;19935;-71
2022/04/25 06:13:32;;;;;;;;;;;;;;;;;;5043954;28;19940;-70
2022/04/25 06:15:58;;;;;;;;;;;;;;;;;;5041418;28;20383;-70
2022/04/25 06:18:24;;;;;;;;;;;;;;;;;;5034728;28;19928;-71
2022/04/25 06:20:50;;;;;;;;;;;;;;;;;;5029825;28;19936;-70
2022/04/25 06:23:17;;;;;;;;;;;;;;;;;;5044958;28;20019;-71
2022/04/25 06:25:44;;;;;;;;;;;;;;;;;;5027856;28;20444;-71
2022/04/25 06:28:10;;;;;;;;;;;;;;;;;;5033141;28;19929;-71
2022/04/25 06:30:36;;;;;;;;;;;;;;;;;;5031722;28;19940;-71
2022/04/25 06:33:02;;;;;;;;;;;;;;;;;;5023824;28;19940;-71
2022/04/25 06:35:28;;;;;;;;;;;;;;;;;;5026500;28;19929;-71
2022/04/25 06:37:54;;;;;;;;;;;;;;;;;;5031344;28;19933;-71
2022/04/25 06:40:21;;;;;;;;;;;;;;;;;;5029673;28;19925;-70
2022/04/25 06:42:47;;;;;;;;;;;;;;;;;;5039665;28;19929;-71
2022/04/25 06:45:14;;;;;;;;;;;;;;;;;;5039369;28;19936;-70
2022/04/25 06:47:40;;;;;;;;;;;;;;;;;;5053031;28;19933;-69
2022/04/25 06:50:06;;;;;;;;;;;;;;;;;;5045577;28;19928;-70
2022/04/25 06:52:33;;;;;;;;;;;;;;;;;;5044971;28;20350;-70
2022/04/25 06:54:59;;;;;;;;;;;;;;;;;;5061959;28;20328;-70
2022/04/25 06:57:25;;;;;;;;;;;;;;;;;;5049699;28;19928;-71
2022/04/25 06:59:51;;;;;;;;;;;;;;;;;;5053595;28;19935;-70
2022/04/25 07:02:17;;;;;;;;;;;;;;;;;;5049652;28;19936;-71
2022/04/25 07:04:43;;;;;;;;;;;;;;;;;;5056085;28;19951;-70
2022/04/25 07:07:09;;;;;;;;;;;;;;;;;;5053831;28;19936;-70
2022/04/25 07:09:35;;;;;;;;;;;;;;;;;;5053680;28;19932;-70
2022/04/25 07:12:01;;;;;;;;;;;;;;;;;;5047703;28;19929;-71
2022/04/25 07:14:28;;;;;;;;;;;;;;;;;;5054186;28;20009;-69
2022/04/25 07:16:56;;;;;;;;;;;;;;;;;;5043160;28;19933;-71
2022/04/25 07:19:22;;;;;;;;;;;;;;;;;;5035222;28;19936;-71
2022/04/25 07:30:00;;;;;;;;;;;;;;;;;;5043297;28;19947;-72
2022/04/25 07:32:26;;;;;;;;;;;;;;;;;;5025330;28;19929;-71
2022/04/25 07:34:52;;;;;;;;;;;;;;;;;;5023561;28;20714;-71
2022/04/25 07:37:18;;;;;;;;;;;;;;;;;;5028867;28;20427;-70
2022/04/25 07:39:45;;;;;;;;;;;;;;;;;;5029172;28;19929;-72
2022/04/25 07:42:12;;;;;;;;;;;;;;;;;;5026438;28;20350;-70
2022/04/25 07:44:38;;;;;;;;;;;;;;;;;;5044134;28;19928;-72
2022/04/25 07:47:05;;;;;;;;;;;;;;;;;;5032487;28;19929;-72
2022/04/25 07:49:33;;;;;;;;;;;;;;;;;;5031952;28;20363;-72
2022/04/25 07:51:59;;;;;;;;;;;;;;;;;;5043927;28;20455;-71
2022/04/25 07:54:26;;;;;;;;;;;;;;;;;;5036369;28;20419;-73
2022/04/25 07:56:52;;;;;;;;;;;;;;;;;;5048209;28;19928;-73
2022/04/25 07:59:18;;;;;;;;;;;;;;;;;;5028810;28;19968;-72
2022/04/25 08:01:44;;;;;;;;;;;;;;;;;;5023850;28;20302;-72
2022/04/25 08:04:11;;;;;;;;;;;;;;;;;;5024319;28;19940;-71
2022/04/25 08:06:38;;;;;;;;;;;;;;;;;;5025539;28;19929;-72
2022/04/25 08:09:04;;;;;;;;;;;;;;;;;;5025336;28;19952;-72
2022/04/25 08:11:31;;;;;;;;;;;;;;;;;;5032919;28;19928;-72
2022/04/25 08:19:24;;;;;;;;;;;;;;;;;;5039534;28;19977;-71
2022/04/25 08:21:51;;;;;;;;;;;;;;;;;;5052041;28;19967;-71
2022/04/25 08:24:17;;;;;;;;;;;;;;;;;;5044732;28;19943;-72
2022/04/25 08:26:44;;;;;;;;;;;;;;;;;;5050271;28;20410;-72
2022/04/25 08:29:10;;;;;;;;;;;;;;;;;;5048437;28;19929;-71
2022/04/25 08:31:37;;;;;;;;;;;;;;;;;;5048467;28;19951;-72
2022/04/25 08:34:03;;;;;;;;;;;;;;;;;;5050760;28;19933;-71
2022/04/25 08:36:29;;;;;;;;;;;;;;;;;;5053196;28;20059;-71
2022/04/25 08:38:55;;;;;;;;;;;;;;;;;;5053094;28;20384;-71
2022/04/25 08:41:21;;;;;;;;;;;;;;;;;;5050463;28;20517;-71
2022/04/25 08:43:47;;;;;;;;;;;;;;;;;;5045132;28;19929;-73
2022/04/25 08:46:13;;;;;;;;;;;;;;;;;;5046994;28;20299;-74
2022/04/25 08:48:40;;;;;;;;;;;;;;;;;;5049154;28;20302;-72
2022/04/25 08:51:06;;;;;;;;;;;;;;;;;;5049185;28;20310;-72
2022/04/25 08:53:32;;;;;;;;;;;;;;;;;;5047782;28;19955;-72
2022/04/25 08:55:58;;;;;;;;;;;;;;;;;;5050239;28;19924;-72
2022/04/25 08:58:24;;;;;;;;;;;;;;;;;;5057055;28;19928;-72
2022/04/25 09:00:50;;;;;;;;;;;;;;;;;;5046170;28;20335;-72
2022/04/25 09:03:16;;;;;;;;;;;;;;;;;;5048495;28;20645;-73
2022/04/25 09:05:43;;;;;;;;;;;;;;;;;;5053801;28;20307;-72
2022/04/25 09:08:09;;;;;;;;;;;;;;;;;;5106076;22;19927;-75
2022/04/25 09:10:36;;;;;;;;;;;;;;;;;;5077961;28;20217;-75
2022/04/25 09:13:02;;;;;;;;;;;;;;;;;;5078958;28;20024;-78
2022/04/25 09:15:28;;;;;;;;;;;;;;;;;;5081747;28;19939;-77
2022/04/25 09:17:54;;;;;;;;;;;;;;;;;;5071644;28;19928;-77
2022/04/25 09:20:21;;;;;;;;;;;;;;;;;;5077680;28;19955;-78
2022/04/25 09:22:48;;;;;;;;;;;;;;;;;;5109718;28;19942;-77
2022/04/25 09:25:15;;;;;;;;;;;;;;;;;;5101828;28;19928;-78
2022/04/25 09:27:42;;;;;;;;;;;;;;;;;;5104890;28;19917;-78
2022/04/25 09:30:08;;;;;;;;;;;;;;;;;;5111887;28;19912;-77
2022/04/25 09:32:34;;;;;;;;;;;;;;;;;;5111701;28;19912;-76
2022/04/25 09:35:04;;;;;;;;;;;;;;;;;;5093337;28;19928;-75
2022/04/25 09:37:30;;;;;;;;;;;;;;;;;;5095173;28;19928;-77
2022/04/25 09:39:56;;;;;;;;;;;;;;;;;;5110171;28;19936;-79
2022/04/25 09:42:22;;;;;;;;;;;;;;;;;;5107308;28;19935;-77
2022/04/25 09:44:48;;;;;;;;;;;;;;;;;;5099983;28;19947;-78
2022/04/25 09:47:14;;;;;;;;;;;;;;;;;;5108458;28;19924;-78
2022/04/25 09:49:40;;;;;;;;;;;;;;;;;;5105763;28;19924;-78
2022/04/25 09:52:08;;;;;;;;;;;;;;;;;;5088707;28;19928;-75
2022/04/25 09:54:34;;;;;;;;;;;;;;;;;;5090374;28;20007;-78
2022/04/25 09:57:00;;;;;;;;;;;;;;;;;;5084545;28;19931;-78
2022/04/25 09:59:26;;;;;;;;;;;;;;;;;;5091611;28;19932;-78
2022/04/25 10:01:53;;;;;;;;;;;;;;;;;;5082780;28;19940;-77
2022/04/25 10:04:19;;;;;;;;;;;;;;;;;;5084579;28;19935;-76
2022/04/25 10:06:46;;;;;;;;;;;;;;;;;;5090695;28;19928;-77
2022/04/25 10:09:12;;;;;;;;;;;;;;;;;;5081678;28;19959;-78
2022/04/25 10:11:38;;;;;;;;;;;;;;;;;;5083813;28;19970;-76
2022/04/25 10:14:04;;;;;;;;;;;;;;;;;;5080391;28;20580;-77
2022/04/25 10:16:31;;;;;;;;;;;;;;;;;;5078009;28;20402;-78
2022/04/25 10:18:57;;;;;;;;;;;;;;;;;;5076163;28;19969;-78
2022/04/25 10:21:23;;;;;;;;;;;;;;;;;;5082159;28;19928;-77
2022/04/25 10:23:49;;;;;;;;;;;;;;;;;;5077558;28;19924;-79
2022/04/25 10:26:15;;;;;;;;;;;;;;;;;;5078083;28;19935;-78
2022/04/25 10:28:41;;;;;;;;;;;;;;;;;;5087410;28;19924;-78
2022/04/25 10:31:08;;;;;;;;;;;;;;;;;;5083881;28;19950;-78
2022/04/25 10:33:41;;;;;;;;;;;;;;;;;;4968646;28;10000140;-76
2022/04/25 10:36:07;;;;;;;;;;;;;;;;;;5072982;28;20513;-77
2022/04/25 10:38:48;;;;;;;;;;;;;;;;;;5086302;28;19928;-78
2022/04/25 10:44:12;;;;;;;;;;;;;;;;;;5079108;28;20023;-77
2022/04/25 10:46:38;;;;;;;;;;;;;;;;;;5084546;28;19928;-77
2022/04/25 10:49:04;;;;;;;;;;;;;;;;;;5074957;28;19935;-77
2022/04/25 10:51:31;;;;;;;;;;;;;;;;;;5080870;28;20398;-79
2022/04/25 10:53:59;;;;;;;;;;;;;;;;;;5088231;28;20374;-79
2022/04/25 10:56:26;;;;;;;;;;;;;;;;;;5084069;28;19928;-76
2022/04/25 10:58:52;;;;;;;;;;;;;;;;;;5082895;28;19959;-77
2022/04/25 11:01:18;;;;;;;;;;;;;;;;;;5084872;28;19932;-79
2022/04/25 11:03:44;;;;;;;;;;;;;;;;;;5078631;28;19951;-76
2022/04/25 11:06:11;;;;;;;;;;;;;;;;;;5075112;28;19924;-77
2022/04/25 11:08:37;;;;;;;;;;;;;;;;;;5083292;28;20395;-77
2022/04/25 11:11:03;;;;;;;;;;;;;;;;;;5075730;28;19985;-76
2022/04/25 11:13:29;;;;;;;;;;;;;;;;;;5085664;28;19927;-78
2022/04/25 11:15:56;;;;;;;;;;;;;;;;;;5086117;28;19932;-78
2022/04/25 11:18:23;;;;;;;;;;;;;;;;;;5072830;28;19928;-77
2022/04/25 11:20:49;;;;;;;;;;;;;;;;;;5088559;28;19928;-77
2022/04/25 11:23:15;;;;;;;;;;;;;;;;;;5087290;28;19928;-78
2022/04/25 11:25:42;;;;;;;;;;;;;;;;;;5079900;28;19969;-77
2022/04/25 11:28:10;;;;;;;;;;;;;;;;;;5086532;28;20006;-76
2022/04/25 11:30:36;;;;;;;;;;;;;;;;;;5081345;28;20414;-77
2022/04/25 11:33:02;;;;;;;;;;;;;;;;;;5104746;28;20011;-78
2022/04/25 11:35:28;;;;;;;;;;;;;;;;;;5098374;28;19935;-75
2022/04/25 11:37:54;;;;;;;;;;;;;;;;;;5084667;28;19935;-79
2022/04/25 11:40:20;;;;;;;;;;;;;;;;;;5084164;28;20667;-79
2022/04/25 11:42:46;;;;;;;;;;;;;;;;;;5082242;28;20426;-78
2022/04/25 11:45:13;;;;;;;;;;;;;;;;;;5076486;28;20386;-79
2022/04/25 11:47:39;;;;;;;;;;;;;;;;;;5082209;28;19924;-75
2022/04/25 11:50:06;;;;;;;;;;;;;;;;;;5083838;28;20420;-77
2022/04/25 11:52:32;;;;;;;;;;;;;;;;;;5080321;28;19947;-78
2022/04/25 11:54:58;;;;;;;;;;;;;;;;;;5076895;28;19928;-74
2022/04/25 11:57:24;;;;;;;;;;;;;;;;;;5078594;28;19924;-74
2022/04/25 11:59:50;;;;;;;;;;;;;;;;;;5080445;28;19951;-78
2022/04/25 12:02:17;;;;;;;;;;;;;;;;;;5077259;28;19928;-80
2022/04/25 12:04:43;;;;;;;;;;;;;;;;;;5075376;28;20084;-77
2022/04/25 12:07:10;;;;;;;;;;;;;;;;;;5081843;28;19968;-76
2022/04/25 12:17:49;;;;;;;;;;;;;;;;;;5085547;28;19992;-75
2022/04/25 12:20:15;;;;;;;;;;;;;;;;;;5083950;28;20377;-77
2022/04/25 12:22:41;;;;;;;;;;;;;;;;;;5087351;28;19928;-77
2022/04/25 12:25:07;;;;;;;;;;;;;;;;;;5077275;28;19932;-79
2022/04/25 12:27:34;;;;;;;;;;;;;;;;;;5077490;28;19924;-77
2022/04/25 12:30:00;;;;;;;;;;;;;;;;;;5084200;28;19928;-78
2022/04/25 12:32:27;;;;;;;;;;;;;;;;;;5078613;28;19960;-78
2022/04/25 12:34:53;;;;;;;;;;;;;;;;;;5079081;28;19924;-76
2022/04/25 12:37:19;;;;;;;;;;;;;;;;;;5081559;28;19924;-77
2022/04/25 12:39:46;;;;;;;;;;;;;;;;;;5080035;28;19924;-77
2022/04/25 12:42:12;;;;;;;;;;;;;;;;;;5071607;28;19931;-76
2022/04/25 12:44:38;;;;;;;;;;;;;;;;;;5082666;28;19944;-77
2022/04/25 12:47:04;;;;;;;;;;;;;;;;;;5084580;28;19928;-79
2022/04/25 12:49:30;;;;;;;;;;;;;;;;;;5077987;28;19928;-78
2022/04/25 12:51:57;;;;;;;;;;;;;;;;;;5085564;28;19935;-78
2022/04/25 12:54:23;;;;;;;;;;;;;;;;;;5077126;28;19935;-78
2022/04/25 12:56:49;;;;;;;;;;;;;;;;;;5085935;28;20030;-79
2022/04/25 12:59:16;;;;;;;;;;;;;;;;;;5085930;28;20236;-79
2022/04/25 13:01:42;;;;;;;;;;;;;;;;;;5082671;28;19928;-79
2022/04/25 13:04:08;;;;;;;;;;;;;;;;;;5079887;28;19939;-79
2022/04/25 13:06:35;;;;;;;;;;;;;;;;;;5076961;28;20429;-79
2022/04/25 13:09:01;;;;;;;;;;;;;;;;;;5090522;28;20429;-77
2022/04/25 13:11:27;;;;;;;;;;;;;;;;;;5088999;28;20431;-77
2022/04/25 13:13:54;;;;;;;;;;;;;;;;;;5097673;28;19988;-79
2022/04/25 13:16:20;;;;;;;;;;;;;;;;;;5081725;28;19925;-78
2022/04/25 13:18:48;;;;;;;;;;;;;;;;;;5093208;28;19938;-74
2022/04/25 13:21:14;;;;;;;;;;;;;;;;;;5111477;28;19928;-75
2022/04/25 13:23:40;;;;;;;;;;;;;;;;;;5107621;28;19922;-75
2022/04/25 13:26:06;;;;;;;;;;;;;;;;;;5099316;28;19944;-77
2022/04/25 13:28:32;;;;;;;;;;;;;;;;;;5093715;28;19972;-75
2022/04/25 13:30:58;;;;;;;;;;;;;;;;;;5103354;28;19944;-75
2022/04/25 13:33:24;;;;;;;;;;;;;;;;;;5113532;28;19928;-77
2022/04/25 13:35:51;;;;;;;;;;;;;;;;;;5115444;28;19972;-78
2022/04/25 13:38:17;;;;;;;;;;;;;;;;;;5113972;28;19912;-78
2022/04/25 13:40:43;;;;;;;;;;;;;;;;;;5114146;28;20063;-76
2022/04/25 13:43:09;;;;;;;;;;;;;;;;;;5109319;28;19919;-75
2022/04/25 13:45:35;;;;;;;;;;;;;;;;;;5106627;28;19920;-77
2022/04/25 13:48:01;;;;;;;;;;;;;;;;;;5084737;28;19928;-77
2022/04/25 13:50:27;;;;;;;;;;;;;;;;;;5078415;28;19928;-79
2022/04/25 13:52:53;;;;;;;;;;;;;;;;;;5080754;28;19928;-79
2022/04/25 13:55:19;;;;;;;;;;;;;;;;;;5083070;28;19931;-78
2022/04/25 13:57:46;;;;;;;;;;;;;;;;;;5072218;28;19986;-78
2022/04/25 14:00:12;;;;;;;;;;;;;;;;;;5081891;28;19928;-78
2022/04/25 14:05:22;;;;;;;;;;;;;;;;;;5087396;28;19935;-78
2022/04/25 14:07:48;;;;;;;;;;;;;;;;;;5091374;28;19928;-77
2022/04/25 14:10:14;;;;;;;;;;;;;;;;;;5078131;28;20045;-78
2022/04/25 14:12:40;;;;;;;;;;;;;;;;;;5082199;28;19972;-76
2022/04/25 14:15:06;;;;;;;;;;;;;;;;;;5087731;28;19936;-78
2022/04/25 14:17:33;;;;;;;;;;;;;;;;;;5082395;28;19944;-79
2022/04/25 14:19:59;;;;;;;;;;;;;;;;;;5079051;28;19932;-78
2022/04/25 14:22:26;;;;;;;;;;;;;;;;;;5080113;28;20223;-77
2022/04/25 14:24:52;;;;;;;;;;;;;;;;;;5085614;28;19928;-77
2022/04/25 14:27:18;;;;;;;;;;;;;;;;;;5089614;28;19979;-75
2022/04/25 14:29:44;;;;;;;;;;;;;;;;;;5087310;28;19961;-78
2022/04/25 14:32:10;;;;;;;;;;;;;;;;;;5093604;28;20026;-76
2022/04/25 14:34:36;;;;;;;;;;;;;;;;;;5107224;28;19938;-76
2022/04/25 14:37:02;;;;;;;;;;;;;;;;;;5087577;28;19928;-77
2022/04/25 14:39:29;;;;;;;;;;;;;;;;;;5089298;28;20444;-78
2022/04/25 14:41:55;;;;;;;;;;;;;;;;;;5084636;28;19970;-77
2022/04/25 14:44:21;;;;;;;;;;;;;;;;;;5084921;28;19932;-76
2022/04/25 14:46:48;;;;;;;;;;;;;;;;;;5083991;28;19925;-78
2022/04/25 14:49:16;;;;;;;;;;;;;;;;;;5067635;28;20043;-77
2022/04/25 14:54:30;;;;;;;;;;;;;;;;;;5079347;28;20009;-77
2022/04/25 14:56:56;;;;;;;;;;;;;;;;;;5079535;28;19938;-77
2022/04/25 14:59:22;;;;;;;;;;;;;;;;;;5077351;28;19935;-73
2022/04/25 15:01:50;;;;;;;;;;;;;;;;;;5079926;28;20398;-74
2022/04/25 15:04:16;;;;;;;;;;;;;;;;;;5072763;28;19928;-73
2022/04/25 15:06:42;;;;;;;;;;;;;;;;;;5077298;28;19928;-73
2022/04/25 15:09:08;;;;;;;;;;;;;;;;;;5101996;22;20022;-74
2022/04/25 15:11:34;;;;;;;;;;;;;;;;;;5082314;28;19928;-75
2022/04/25 15:14:01;;;;;;;;;;;;;;;;;;5080784;28;20043;-76
2022/04/25 15:16:27;;;;;;;;;;;;;;;;;;5074167;28;19924;-73
2022/04/25 15:18:53;;;;;;;;;;;;;;;;;;5062146;28;19928;-73
2022/04/25 15:21:19;;;;;;;;;;;;;;;;;;5054080;28;19932;-74
2022/04/25 15:23:45;;;;;;;;;;;;;;;;;;5059699;28;19936;-74
2022/04/25 15:26:11;;;;;;;;;;;;;;;;;;5059698;28;19935;-73
2022/04/25 15:28:37;;;;;;;;;;;;;;;;;;5058045;28;19928;-73
2022/04/25 15:31:03;;;;;;;;;;;;;;;;;;5048791;28;19931;-74
2022/04/25 15:33:30;;;;;;;;;;;;;;;;;;5052186;28;19928;-72
2022/04/25 15:35:56;;;;;;;;;;;;;;;;;;5061045;28;19932;-74
2022/04/25 15:38:22;;;;;;;;;;;;;;;;;;5055230;28;19940;-73
2022/04/25 15:40:50;;;;;;;;;;;;;;;;;;5055970;28;19928;-72
2022/04/25 15:43:17;;;;;;;;;;;;;;;;;;5039648;28;21807;-72
2022/04/25 15:45:43;;;;;;;;;;;;;;;;;;5060349;28;19924;-74
2022/04/25 15:48:09;;;;;;;;;;;;;;;;;;5063130;28;19932;-73
2022/04/25 15:50:35;;;;;;;;;;;;;;;;;;5061762;28;19928;-73
2022/04/25 15:53:01;;;;;;;;;;;;;;;;;;5056565;28;19931;-73
2022/04/25 15:58:11;;;;;;;;;;;;;;;;;;5066047;28;19924;-73
2022/04/25 16:00:39;;;;;;;;;;;;;;;;;;5064447;28;19931;-72
2022/04/25 16:03:05;;;;;;;;;;;;;;;;;;5067272;28;19947;-73
2022/04/25 16:05:31;;;;;;;;;;;;;;;;;;5071207;28;19935;-73
2022/04/25 16:07:57;;;;;;;;;;;;;;;;;;5071728;28;19935;-74
2022/04/25 16:10:24;;;;;;;;;;;;;;;;;;5064984;28;19940;-74
2022/04/25 16:12:50;;;;;;;;;;;;;;;;;;5060732;28;19951;-74
2022/04/25 16:15:16;;;;;;;;;;;;;;;;;;5066658;28;19933;-74
2022/04/25 16:17:43;;;;;;;;;;;;;;;;;;5064204;28;19924;-73
2022/04/25 16:20:09;;;;;;;;;;;;;;;;;;5066291;28;19935;-73
2022/04/25 16:22:35;;;;;;;;;;;;;;;;;;5061697;28;19928;-72
2022/04/25 16:25:01;;;;;;;;;;;;;;;;;;5064293;28;19925;-72
2022/04/25 16:27:28;;;;;;;;;;;;;;;;;;5058278;28;19929;-74
2022/04/25 16:29:54;;;;;;;;;;;;;;;;;;5067441;28;19929;-73
2022/04/25 16:32:21;;;;;;;;;;;;;;;;;;5065909;28;19971;-72
2022/04/25 16:34:47;;;;;;;;;;;;;;;;;;5054067;28;19988;-72
2022/04/25 16:37:13;;;;;;;;;;;;;;;;;;5058389;28;19935;-72
2022/04/25 16:39:39;;;;;;;;;;;;;;;;;;5053918;28;19943;-73
2022/04/25 16:42:07;;;;;;;;;;;;;;;;;;5060239;28;19939;-72
2022/04/25 16:44:34;;;;;;;;;;;;;;;;;;5058843;28;19964;-72
2022/04/25 16:47:00;;;;;;;;;;;;;;;;;;5060057;28;20603;-71
2022/04/25 16:49:27;;;;;;;;;;;;;;;;;;5054275;28;19940;-73
2022/04/25 16:51:53;;;;;;;;;;;;;;;;;;5055830;28;20894;-73
2022/04/25 16:54:21;;;;;;;;;;;;;;;;;;5057911;28;19929;-73
2022/04/25 16:56:48;;;;;;;;;;;;;;;;;;5057870;28;20135;-73
2022/04/25 16:59:14;;;;;;;;;;;;;;;;;;5056166;28;20398;-71
2022/04/25 17:01:40;;;;;;;;;;;;;;;;;;5056853;28;19965;-72
2022/04/25 17:04:06;;;;;;;;;;;;;;;;;;5054976;28;19928;-73
2022/04/25 17:06:32;;;;;;;;;;;;;;;;;;5059897;28;19974;-73
2022/04/25 17:08:59;;;;;;;;;;;;;;;;;;5056493;28;20603;-73
2022/04/25 17:11:26;;;;;;;;;;;;;;;;;;5058111;28;19964;-71
2022/04/25 17:13:52;;;;;;;;;;;;;;;;;;5049795;28;19933;-74
2022/04/25 17:16:18;;;;;;;;;;;;;;;;;;5057599;28;19970;-72
2022/04/25 17:18:44;;;;;;;;;;;;;;;;;;5049669;28;19935;-72
2022/04/25 17:21:10;;;;;;;;;;;;;;;;;;5053665;28;19928;-72
2022/04/25 17:23:36;;;;;;;;;;;;;;;;;;5058441;28;19935;-73
2022/04/25 17:26:02;;;;;;;;;;;;;;;;;;5053182;28;20544;-72
2022/04/25 17:28:28;;;;;;;;;;;;;;;;;;5058289;28;19924;-73
2022/04/25 17:30:55;;;;;;;;;;;;;;;;;;5060299;28;20299;-74